sensor_id;sensor_type;location;lat;lon;timestamp;P1;durP1;ratioP1;P2;durP2;ratioP2
51718;SDS011;37795;53.236;5.704;2023-07-13T00:00:27;0.20;;;0.10;;
51718;SDS011;37795;53.236;5.704;2023-07-13T00:02:53;0.20;;;0.20;;
51718;SDS011;37795;53.236;5.704;2023-07-13T00:05:23;0.10;;;0.10;;
51718;SDS011;37795;53.236;5.704;2023-07-13T00:07:50;0.10;;;0.10;;
51718;SDS011;37795;53.236;5.704;2023-07-13T00:10:16;0.10;;;0.10;;
51718;SDS011;37795;53.236;5.704;2023-07-13T00:12:42;0.10;;;0.10;;
51718;SDS011;37795;53.236;5.704;2023-07-13T00:15:19;0.10;;;0.10;;
51718;SDS011;37795;53.236;5.704;2023-07-13T00:17:51;0.10;;;0.10;;
51718;SDS011;37795;53.236;5.704;2023-07-13T00:20:20;0.10;;;0.10;;
51718;SDS011;37795;53.236;5.704;2023-07-13T00:22:54;0.20;;;0.20;;
51718;SDS011;37795;53.236;5.704;2023-07-13T00:25:20;0.20;;;0.20;;
51718;SDS011;37795;53.236;5.704;2023-07-13T00:27:47;0.20;;;0.20;;
51718;SDS011;37795;53.236;5.704;2023-07-13T00:30:16;0.10;;;0.10;;
51718;SDS011;37795;53.236;5.704;2023-07-13T00:32:42;0.10;;;0.10;;
51718;SDS011;37795;53.236;5.704;2023-07-13T00:35:08;0.10;;;0.10;;
51718;SDS011;37795;53.236;5.704;2023-07-13T00:37:35;0.10;;;0.10;;
51718;SDS011;37795;53.236;5.704;2023-07-13T00:40:02;0.10;;;0.10;;
51718;SDS011;37795;53.236;5.704;2023-07-13T00:42:29;0.10;;;0.10;;
51718;SDS011;37795;53.236;5.704;2023-07-13T00:47:32;0.10;;;0.10;;
51718;SDS011;37795;53.236;5.704;2023-07-13T00:49:58;0.10;;;0.10;;
51718;SDS011;37795;53.236;5.704;2023-07-13T00:52:25;0.15;;;0.15;;
51718;SDS011;37795;53.236;5.704;2023-07-13T00:54:51;0.15;;;0.15;;
51718;SDS011;37795;53.236;5.704;2023-07-13T00:57:17;0.15;;;0.15;;
51718;SDS011;37795;53.236;5.704;2023-07-13T00:59:48;0.20;;;0.20;;
51718;SDS011;37795;53.236;5.704;2023-07-13T01:02:16;0.20;;;0.20;;
51718;SDS011;37795;53.236;5.704;2023-07-13T01:04:42;0.20;;;0.20;;
51718;SDS011;37795;53.236;5.704;2023-07-13T01:07:09;0.30;;;0.30;;
51718;SDS011;37795;53.236;5.704;2023-07-13T01:09:37;0.20;;;0.20;;
51718;SDS011;37795;53.236;5.704;2023-07-13T01:12:02;0.30;;;0.20;;
51718;SDS011;37795;53.236;5.704;2023-07-13T01:14:28;0.20;;;0.20;;
51718;SDS011;37795;53.236;5.704;2023-07-13T01:16:54;0.20;;;0.20;;
51718;SDS011;37795;53.236;5.704;2023-07-13T01:22:01;0.20;;;0.20;;
51718;SDS011;37795;53.236;5.704;2023-07-13T01:24:51;0.20;;;0.20;;
51718;SDS011;37795;53.236;5.704;2023-07-13T01:27:19;0.10;;;0.10;;
51718;SDS011;37795;53.236;5.704;2023-07-13T01:29:48;0.20;;;0.20;;
51718;SDS011;37795;53.236;5.704;2023-07-13T01:32:22;0.20;;;0.20;;
51718;SDS011;37795;53.236;5.704;2023-07-13T01:34:52;0.40;;;0.30;;
51718;SDS011;37795;53.236;5.704;2023-07-13T01:37:22;0.10;;;0.10;;
51718;SDS011;37795;53.236;5.704;2023-07-13T01:39:48;0.20;;;0.20;;
51718;SDS011;37795;53.236;5.704;2023-07-13T01:42:14;0.20;;;0.20;;
51718;SDS011;37795;53.236;5.704;2023-07-13T01:44:40;0.20;;;0.20;;
51718;SDS011;37795;53.236;5.704;2023-07-13T01:47:06;0.20;;;0.20;;
51718;SDS011;37795;53.236;5.704;2023-07-13T01:49:31;0.10;;;0.10;;
51718;SDS011;37795;53.236;5.704;2023-07-13T01:51:57;1.40;;;0.80;;
51718;SDS011;37795;53.236;5.704;2023-07-13T01:54:23;0.20;;;0.20;;
51718;SDS011;37795;53.236;5.704;2023-07-13T01:56:49;0.20;;;0.20;;
51718;SDS011;37795;53.236;5.704;2023-07-13T01:59:14;0.10;;;0.10;;
51718;SDS011;37795;53.236;5.704;2023-07-13T02:01:40;0.15;;;0.15;;
51718;SDS011;37795;53.236;5.704;2023-07-13T02:04:06;1.80;;;0.40;;
51718;SDS011;37795;53.236;5.704;2023-07-13T02:06:31;0.20;;;0.20;;
51718;SDS011;37795;53.236;5.704;2023-07-13T02:08:57;0.38;;;0.30;;
51718;SDS011;37795;53.236;5.704;2023-07-13T02:11:23;0.15;;;0.15;;
51718;SDS011;37795;53.236;5.704;2023-07-13T02:13:50;0.10;;;0.10;;
51718;SDS011;37795;53.236;5.704;2023-07-13T02:16:16;0.20;;;0.20;;
51718;SDS011;37795;53.236;5.704;2023-07-13T02:18:41;0.20;;;0.20;;
51718;SDS011;37795;53.236;5.704;2023-07-13T02:21:07;0.20;;;0.20;;
51718;SDS011;37795;53.236;5.704;2023-07-13T02:23:33;0.20;;;0.20;;
51718;SDS011;37795;53.236;5.704;2023-07-13T02:26:00;0.30;;;0.20;;
51718;SDS011;37795;53.236;5.704;2023-07-13T02:28:27;0.10;;;0.10;;
51718;SDS011;37795;53.236;5.704;2023-07-13T02:30:53;1.50;;;0.20;;
51718;SDS011;37795;53.236;5.704;2023-07-13T02:33:19;0.10;;;0.10;;
51718;SDS011;37795;53.236;5.704;2023-07-13T02:35:45;0.10;;;0.10;;
51718;SDS011;37795;53.236;5.704;2023-07-13T02:38:10;0.10;;;0.10;;
51718;SDS011;37795;53.236;5.704;2023-07-13T02:40:36;0.20;;;0.20;;
51718;SDS011;37795;53.236;5.704;2023-07-13T02:43:03;0.35;;;0.35;;
51718;SDS011;37795;53.236;5.704;2023-07-13T02:45:29;0.20;;;0.20;;
51718;SDS011;37795;53.236;5.704;2023-07-13T02:47:55;0.10;;;0.10;;
51718;SDS011;37795;53.236;5.704;2023-07-13T02:50:20;0.30;;;0.30;;
51718;SDS011;37795;53.236;5.704;2023-07-13T02:52:46;0.10;;;0.10;;
51718;SDS011;37795;53.236;5.704;2023-07-13T02:55:12;0.10;;;0.10;;
51718;SDS011;37795;53.236;5.704;2023-07-13T02:57:38;0.10;;;0.10;;
51718;SDS011;37795;53.236;5.704;2023-07-13T03:00:04;0.17;;;0.17;;
51718;SDS011;37795;53.236;5.704;2023-07-13T03:02:31;0.20;;;0.20;;
51718;SDS011;37795;53.236;5.704;2023-07-13T03:04:57;0.30;;;0.30;;
51718;SDS011;37795;53.236;5.704;2023-07-13T03:07:23;0.20;;;0.20;;
51718;SDS011;37795;53.236;5.704;2023-07-13T03:09:54;0.30;;;0.30;;
51718;SDS011;37795;53.236;5.704;2023-07-13T03:12:21;0.40;;;0.40;;
51718;SDS011;37795;53.236;5.704;2023-07-13T03:14:47;0.50;;;0.50;;
51718;SDS011;37795;53.236;5.704;2023-07-13T03:17:13;0.50;;;0.50;;
51718;SDS011;37795;53.236;5.704;2023-07-13T03:19:38;0.20;;;0.20;;
51718;SDS011;37795;53.236;5.704;2023-07-13T03:22:04;0.30;;;0.30;;
51718;SDS011;37795;53.236;5.704;2023-07-13T03:24:32;0.30;;;0.30;;
51718;SDS011;37795;53.236;5.704;2023-07-13T03:26:58;0.50;;;0.50;;
51718;SDS011;37795;53.236;5.704;2023-07-13T03:29:25;0.50;;;0.40;;
51718;SDS011;37795;53.236;5.704;2023-07-13T03:31:51;0.30;;;0.30;;
51718;SDS011;37795;53.236;5.704;2023-07-13T03:34:17;0.28;;;0.28;;
51718;SDS011;37795;53.236;5.704;2023-07-13T03:36:42;0.20;;;0.20;;
51718;SDS011;37795;53.236;5.704;2023-07-13T03:39:08;0.20;;;0.20;;
51718;SDS011;37795;53.236;5.704;2023-07-13T03:41:34;0.30;;;0.30;;
51718;SDS011;37795;53.236;5.704;2023-07-13T03:44:00;0.40;;;0.40;;
51718;SDS011;37795;53.236;5.704;2023-07-13T03:46:26;0.20;;;0.20;;
51718;SDS011;37795;53.236;5.704;2023-07-13T03:48:52;0.20;;;0.20;;
51718;SDS011;37795;53.236;5.704;2023-07-13T03:51:18;0.22;;;0.22;;
51718;SDS011;37795;53.236;5.704;2023-07-13T03:53:45;1.55;;;0.68;;
51718;SDS011;37795;53.236;5.704;2023-07-13T03:56:12;0.60;;;0.60;;
51718;SDS011;37795;53.236;5.704;2023-07-13T03:58:40;0.50;;;0.50;;
51718;SDS011;37795;53.236;5.704;2023-07-13T04:01:08;0.50;;;0.50;;
51718;SDS011;37795;53.236;5.704;2023-07-13T04:03:35;0.28;;;0.28;;
51718;SDS011;37795;53.236;5.704;2023-07-13T04:06:02;0.30;;;0.30;;
51718;SDS011;37795;53.236;5.704;2023-07-13T04:08:30;0.20;;;0.20;;
51718;SDS011;37795;53.236;5.704;2023-07-13T04:10:57;0.40;;;0.40;;
51718;SDS011;37795;53.236;5.704;2023-07-13T04:13:23;0.20;;;0.20;;
51718;SDS011;37795;53.236;5.704;2023-07-13T04:15:49;0.30;;;0.30;;
51718;SDS011;37795;53.236;5.704;2023-07-13T04:18:16;0.10;;;0.10;;
51718;SDS011;37795;53.236;5.704;2023-07-13T04:20:41;0.20;;;0.20;;
51718;SDS011;37795;53.236;5.704;2023-07-13T04:23:07;0.30;;;0.30;;
51718;SDS011;37795;53.236;5.704;2023-07-13T04:25:33;0.20;;;0.20;;
51718;SDS011;37795;53.236;5.704;2023-07-13T04:27:59;0.40;;;0.30;;
51718;SDS011;37795;53.236;5.704;2023-07-13T04:30:24;0.20;;;0.20;;
51718;SDS011;37795;53.236;5.704;2023-07-13T04:32:51;0.30;;;0.30;;
51718;SDS011;37795;53.236;5.704;2023-07-13T04:35:17;0.10;;;0.10;;
51718;SDS011;37795;53.236;5.704;2023-07-13T04:37:46;0.80;;;0.25;;
51718;SDS011;37795;53.236;5.704;2023-07-13T04:40:13;0.30;;;0.30;;
51718;SDS011;37795;53.236;5.704;2023-07-13T04:42:39;0.20;;;0.20;;
51718;SDS011;37795;53.236;5.704;2023-07-13T04:45:06;0.20;;;0.20;;
51718;SDS011;37795;53.236;5.704;2023-07-13T04:47:32;0.70;;;0.30;;
51718;SDS011;37795;53.236;5.704;2023-07-13T04:49:58;0.27;;;0.27;;
51718;SDS011;37795;53.236;5.704;2023-07-13T04:52:24;0.30;;;0.30;;
51718;SDS011;37795;53.236;5.704;2023-07-13T04:54:50;0.20;;;0.20;;
51718;SDS011;37795;53.236;5.704;2023-07-13T04:57:15;0.13;;;0.13;;
51718;SDS011;37795;53.236;5.704;2023-07-13T04:59:41;0.20;;;0.20;;
51718;SDS011;37795;53.236;5.704;2023-07-13T05:02:07;0.40;;;0.40;;
51718;SDS011;37795;53.236;5.704;2023-07-13T05:04:32;0.20;;;0.20;;
51718;SDS011;37795;53.236;5.704;2023-07-13T05:06:58;0.30;;;0.30;;
51718;SDS011;37795;53.236;5.704;2023-07-13T05:09:24;0.10;;;0.10;;
51718;SDS011;37795;53.236;5.704;2023-07-13T05:11:50;0.65;;;0.45;;
51718;SDS011;37795;53.236;5.704;2023-07-13T05:14:16;0.20;;;0.20;;
51718;SDS011;37795;53.236;5.704;2023-07-13T05:16:42;0.10;;;0.10;;
51718;SDS011;37795;53.236;5.704;2023-07-13T05:19:08;0.60;;;0.25;;
51718;SDS011;37795;53.236;5.704;2023-07-13T05:21:34;0.28;;;0.28;;
51718;SDS011;37795;53.236;5.704;2023-07-13T05:24:00;0.20;;;0.20;;
51718;SDS011;37795;53.236;5.704;2023-07-13T05:26:25;0.20;;;0.20;;
51718;SDS011;37795;53.236;5.704;2023-07-13T05:28:51;0.30;;;0.30;;
51718;SDS011;37795;53.236;5.704;2023-07-13T05:31:17;0.20;;;0.20;;
51718;SDS011;37795;53.236;5.704;2023-07-13T05:33:42;0.13;;;0.13;;
51718;SDS011;37795;53.236;5.704;2023-07-13T05:36:08;0.20;;;0.20;;
51718;SDS011;37795;53.236;5.704;2023-07-13T05:38:34;0.22;;;0.22;;
51718;SDS011;37795;53.236;5.704;2023-07-13T05:41:00;0.37;;;0.30;;
51718;SDS011;37795;53.236;5.704;2023-07-13T05:43:25;0.30;;;0.30;;
51718;SDS011;37795;53.236;5.704;2023-07-13T05:45:55;0.60;;;0.60;;
51718;SDS011;37795;53.236;5.704;2023-07-13T05:48:21;0.20;;;0.20;;
51718;SDS011;37795;53.236;5.704;2023-07-13T05:50:47;0.20;;;0.20;;
51718;SDS011;37795;53.236;5.704;2023-07-13T05:53:14;0.30;;;0.30;;
51718;SDS011;37795;53.236;5.704;2023-07-13T05:55:41;0.70;;;0.30;;
51718;SDS011;37795;53.236;5.704;2023-07-13T05:58:08;0.68;;;0.32;;
51718;SDS011;37795;53.236;5.704;2023-07-13T06:00:34;0.30;;;0.30;;
51718;SDS011;37795;53.236;5.704;2023-07-13T06:02:59;0.40;;;0.40;;
51718;SDS011;37795;53.236;5.704;2023-07-13T06:05:25;0.30;;;0.30;;
51718;SDS011;37795;53.236;5.704;2023-07-13T06:07:52;0.30;;;0.30;;
51718;SDS011;37795;53.236;5.704;2023-07-13T06:10:17;0.63;;;0.40;;
51718;SDS011;37795;53.236;5.704;2023-07-13T06:12:43;0.40;;;0.40;;
51718;SDS011;37795;53.236;5.704;2023-07-13T06:15:09;0.30;;;0.30;;
51718;SDS011;37795;53.236;5.704;2023-07-13T06:17:35;0.33;;;0.33;;
51718;SDS011;37795;53.236;5.704;2023-07-13T06:20:00;0.50;;;0.40;;
51718;SDS011;37795;53.236;5.704;2023-07-13T06:22:26;0.40;;;0.40;;
51718;SDS011;37795;53.236;5.704;2023-07-13T06:24:52;0.40;;;0.40;;
51718;SDS011;37795;53.236;5.704;2023-07-13T06:27:18;0.40;;;0.40;;
51718;SDS011;37795;53.236;5.704;2023-07-13T06:29:43;0.40;;;0.40;;
51718;SDS011;37795;53.236;5.704;2023-07-13T06:32:10;0.40;;;0.40;;
51718;SDS011;37795;53.236;5.704;2023-07-13T06:34:36;0.40;;;0.40;;
51718;SDS011;37795;53.236;5.704;2023-07-13T06:37:01;0.47;;;0.47;;
51718;SDS011;37795;53.236;5.704;2023-07-13T06:39:27;0.30;;;0.30;;
51718;SDS011;37795;53.236;5.704;2023-07-13T06:41:53;0.43;;;0.43;;
51718;SDS011;37795;53.236;5.704;2023-07-13T06:44:18;0.30;;;0.30;;
51718;SDS011;37795;53.236;5.704;2023-07-13T06:46:44;0.30;;;0.30;;
51718;SDS011;37795;53.236;5.704;2023-07-13T06:55:14;0.43;;;0.43;;
51718;SDS011;37795;53.236;5.704;2023-07-13T06:57:40;0.40;;;0.40;;
51718;SDS011;37795;53.236;5.704;2023-07-13T07:00:06;0.70;;;0.70;;
51718;SDS011;37795;53.236;5.704;2023-07-13T07:02:34;0.50;;;0.40;;
51718;SDS011;37795;53.236;5.704;2023-07-13T07:05:00;0.30;;;0.30;;
51718;SDS011;37795;53.236;5.704;2023-07-13T07:07:26;0.38;;;0.38;;
51718;SDS011;37795;53.236;5.704;2023-07-13T07:09:52;0.20;;;0.20;;
51718;SDS011;37795;53.236;5.704;2023-07-13T07:12:17;0.30;;;0.30;;
51718;SDS011;37795;53.236;5.704;2023-07-13T07:14:43;0.47;;;0.47;;
51718;SDS011;37795;53.236;5.704;2023-07-13T07:17:08;1.10;;;0.40;;
51718;SDS011;37795;53.236;5.704;2023-07-13T07:19:35;0.20;;;0.20;;
51718;SDS011;37795;53.236;5.704;2023-07-13T07:22:00;0.47;;;0.47;;
51718;SDS011;37795;53.236;5.704;2023-07-13T07:24:26;0.47;;;0.35;;
51718;SDS011;37795;53.236;5.704;2023-07-13T07:26:52;0.20;;;0.20;;
51718;SDS011;37795;53.236;5.704;2023-07-13T07:29:17;0.30;;;0.30;;
51718;SDS011;37795;53.236;5.704;2023-07-13T07:31:43;0.30;;;0.30;;
51718;SDS011;37795;53.236;5.704;2023-07-13T07:34:09;0.30;;;0.30;;
51718;SDS011;37795;53.236;5.704;2023-07-13T07:36:34;0.83;;;0.40;;
51718;SDS011;37795;53.236;5.704;2023-07-13T07:39:00;0.57;;;0.57;;
51718;SDS011;37795;53.236;5.704;2023-07-13T07:41:26;0.47;;;0.47;;
51718;SDS011;37795;53.236;5.704;2023-07-13T07:43:51;0.40;;;0.40;;
51718;SDS011;37795;53.236;5.704;2023-07-13T07:46:17;0.47;;;0.47;;
51718;SDS011;37795;53.236;5.704;2023-07-13T07:48:43;0.30;;;0.30;;
51718;SDS011;37795;53.236;5.704;2023-07-13T07:51:08;0.50;;;0.50;;
51718;SDS011;37795;53.236;5.704;2023-07-13T07:53:34;0.40;;;0.40;;
51718;SDS011;37795;53.236;5.704;2023-07-13T07:56:00;0.50;;;0.50;;
51718;SDS011;37795;53.236;5.704;2023-07-13T07:58:25;0.50;;;0.50;;
51718;SDS011;37795;53.236;5.704;2023-07-13T08:00:51;0.40;;;0.40;;
51718;SDS011;37795;53.236;5.704;2023-07-13T08:03:17;0.75;;;0.60;;
51718;SDS011;37795;53.236;5.704;2023-07-13T08:05:42;0.50;;;0.50;;
51718;SDS011;37795;53.236;5.704;2023-07-13T08:08:08;0.60;;;0.60;;
51718;SDS011;37795;53.236;5.704;2023-07-13T08:10:35;0.45;;;0.45;;
51718;SDS011;37795;53.236;5.704;2023-07-13T08:13:02;0.43;;;0.43;;
51718;SDS011;37795;53.236;5.704;2023-07-13T08:15:28;0.53;;;0.33;;
51718;SDS011;37795;53.236;5.704;2023-07-13T08:17:54;0.50;;;0.50;;
51718;SDS011;37795;53.236;5.704;2023-07-13T08:20:20;0.40;;;0.40;;
51718;SDS011;37795;53.236;5.704;2023-07-13T08:22:45;0.40;;;0.40;;
51718;SDS011;37795;53.236;5.704;2023-07-13T08:25:11;1.20;;;0.60;;
51718;SDS011;37795;53.236;5.704;2023-07-13T08:27:37;0.68;;;0.52;;
51718;SDS011;37795;53.236;5.704;2023-07-13T08:30:03;0.40;;;0.40;;
51718;SDS011;37795;53.236;5.704;2023-07-13T08:32:30;0.82;;;0.40;;
51718;SDS011;37795;53.236;5.704;2023-07-13T08:34:56;0.60;;;0.57;;
51718;SDS011;37795;53.236;5.704;2023-07-13T08:37:22;0.60;;;0.60;;
51718;SDS011;37795;53.236;5.704;2023-07-13T08:39:48;0.15;;;0.15;;
51718;SDS011;37795;53.236;5.704;2023-07-13T08:45:04;0.52;;;0.52;;
51718;SDS011;37795;53.236;5.704;2023-07-13T08:47:51;0.47;;;0.47;;
51718;SDS011;37795;53.236;5.704;2023-07-13T08:50:19;0.50;;;0.50;;
51718;SDS011;37795;53.236;5.704;2023-07-13T08:52:50;0.28;;;0.28;;
51718;SDS011;37795;53.236;5.704;2023-07-13T08:55:18;0.50;;;0.40;;
51718;SDS011;37795;53.236;5.704;2023-07-13T08:57:51;0.30;;;0.30;;
51718;SDS011;37795;53.236;5.704;2023-07-13T09:00:21;0.38;;;0.38;;
51718;SDS011;37795;53.236;5.704;2023-07-13T09:02:54;0.40;;;0.40;;
51718;SDS011;37795;53.236;5.704;2023-07-13T09:05:27;0.43;;;0.43;;
51718;SDS011;37795;53.236;5.704;2023-07-13T09:08:59;0.52;;;0.50;;
51718;SDS011;37795;53.236;5.704;2023-07-13T09:11:21;0.55;;;0.55;;
51718;SDS011;37795;53.236;5.704;2023-07-13T09:14:26;0.40;;;0.40;;
51718;SDS011;37795;53.236;5.704;2023-07-13T09:17:05;0.40;;;0.40;;
51718;SDS011;37795;53.236;5.704;2023-07-13T09:19:43;0.60;;;0.47;;
51718;SDS011;37795;53.236;5.704;2023-07-13T09:22:16;0.30;;;0.30;;
51718;SDS011;37795;53.236;5.704;2023-07-13T09:27:46;0.40;;;0.35;;
51718;SDS011;37795;53.236;5.704;2023-07-13T09:32:39;0.30;;;0.30;;
51718;SDS011;37795;53.236;5.704;2023-07-13T09:35:11;0.35;;;0.35;;
51718;SDS011;37795;53.236;5.704;2023-07-13T09:37:40;0.50;;;0.50;;
51718;SDS011;37795;53.236;5.704;2023-07-13T09:40:24;0.22;;;0.22;;
51718;SDS011;37795;53.236;5.704;2023-07-13T09:42:58;0.45;;;0.45;;
51718;SDS011;37795;53.236;5.704;2023-07-13T09:45:28;0.40;;;0.40;;
51718;SDS011;37795;53.236;5.704;2023-07-13T09:48:05;0.40;;;0.38;;
51718;SDS011;37795;53.236;5.704;2023-07-13T09:50:35;0.40;;;0.40;;
51718;SDS011;37795;53.236;5.704;2023-07-13T09:53:02;0.55;;;0.55;;
51718;SDS011;37795;53.236;5.704;2023-07-13T09:57:56;0.40;;;0.40;;
51718;SDS011;37795;53.236;5.704;2023-07-13T10:00:26;0.40;;;0.40;;
51718;SDS011;37795;53.236;5.704;2023-07-13T10:05:38;0.30;;;0.30;;
51718;SDS011;37795;53.236;5.704;2023-07-13T10:08:05;0.60;;;0.60;;
51718;SDS011;37795;53.236;5.704;2023-07-13T10:10:39;2.90;;;1.10;;
51718;SDS011;37795;53.236;5.704;2023-07-13T10:13:08;0.43;;;0.43;;
51718;SDS011;37795;53.236;5.704;2023-07-13T10:15:49;0.75;;;0.47;;
51718;SDS011;37795;53.236;5.704;2023-07-13T10:18:15;0.63;;;0.40;;
51718;SDS011;37795;53.236;5.704;2023-07-13T10:20:41;0.40;;;0.40;;
51718;SDS011;37795;53.236;5.704;2023-07-13T10:23:09;0.60;;;0.60;;
51718;SDS011;37795;53.236;5.704;2023-07-13T10:25:45;0.50;;;0.50;;
51718;SDS011;37795;53.236;5.704;2023-07-13T10:30:55;0.50;;;0.50;;
51718;SDS011;37795;53.236;5.704;2023-07-13T10:33:25;0.60;;;0.60;;
51718;SDS011;37795;53.236;5.704;2023-07-13T10:35:54;0.40;;;0.40;;
51718;SDS011;37795;53.236;5.704;2023-07-13T10:38:42;0.43;;;0.32;;
51718;SDS011;37795;53.236;5.704;2023-07-13T10:41:19;1.27;;;0.50;;
51718;SDS011;37795;53.236;5.704;2023-07-13T10:43:49;0.50;;;0.50;;
51718;SDS011;37795;53.236;5.704;2023-07-13T10:46:18;0.70;;;0.70;;
51718;SDS011;37795;53.236;5.704;2023-07-13T11:00:53;0.63;;;0.63;;
51718;SDS011;37795;53.236;5.704;2023-07-13T11:03:33;1.00;;;0.65;;
51718;SDS011;37795;53.236;5.704;2023-07-13T11:06:28;0.70;;;0.70;;
51718;SDS011;37795;53.236;5.704;2023-07-13T11:15:04;3.50;;;1.17;;
51718;SDS011;37795;53.236;5.704;2023-07-13T11:22:42;0.88;;;0.75;;
51718;SDS011;37795;53.236;5.704;2023-07-13T11:25:29;3.17;;;0.98;;
51718;SDS011;37795;53.236;5.704;2023-07-13T11:30:37;0.52;;;0.52;;
51718;SDS011;37795;53.236;5.704;2023-07-13T11:38:23;1.60;;;1.20;;
51718;SDS011;37795;53.236;5.704;2023-07-13T11:40:59;1.25;;;1.15;;
51718;SDS011;37795;53.236;5.704;2023-07-13T11:43:40;2.55;;;1.10;;
51718;SDS011;37795;53.236;5.704;2023-07-13T11:46:19;2.03;;;0.75;;
51718;SDS011;37795;53.236;5.704;2023-07-13T11:48:47;1.10;;;1.08;;
51718;SDS011;37795;53.236;5.704;2023-07-13T11:51:19;1.85;;;0.70;;
51718;SDS011;37795;53.236;5.704;2023-07-13T18:55:20;0.80;;;0.60;;
51718;SDS011;37795;53.236;5.704;2023-07-13T18:57:48;0.60;;;0.60;;
51718;SDS011;37795;53.236;5.704;2023-07-13T19:00:19;0.45;;;0.45;;
51718;SDS011;37795;53.236;5.704;2023-07-13T19:02:51;0.47;;;0.47;;
51718;SDS011;37795;53.236;5.704;2023-07-13T19:05:19;0.53;;;0.53;;
51718;SDS011;37795;53.236;5.704;2023-07-13T19:07:52;0.75;;;0.55;;
51718;SDS011;37795;53.236;5.704;2023-07-13T19:10:22;0.30;;;0.30;;
51718;SDS011;37795;53.236;5.704;2023-07-13T19:12:52;0.47;;;0.40;;
51718;SDS011;37795;53.236;5.704;2023-07-13T19:15:25;0.30;;;0.30;;
51718;SDS011;37795;53.236;5.704;2023-07-13T19:17:55;0.65;;;0.65;;
51718;SDS011;37795;53.236;5.704;2023-07-13T19:20:22;0.63;;;0.63;;
51718;SDS011;37795;53.236;5.704;2023-07-13T19:25:18;0.45;;;0.40;;
51718;SDS011;37795;53.236;5.704;2023-07-13T19:27:45;0.50;;;0.50;;
51718;SDS011;37795;53.236;5.704;2023-07-13T19:30:12;0.47;;;0.47;;
51718;SDS011;37795;53.236;5.704;2023-07-13T19:32:39;1.10;;;0.75;;
51718;SDS011;37795;53.236;5.704;2023-07-13T19:35:06;0.70;;;0.70;;
51718;SDS011;37795;53.236;5.704;2023-07-13T19:37:35;0.55;;;0.55;;
51718;SDS011;37795;53.236;5.704;2023-07-13T19:42:46;0.40;;;0.40;;
51718;SDS011;37795;53.236;5.704;2023-07-13T19:45:17;0.98;;;0.50;;
51718;SDS011;37795;53.236;5.704;2023-07-13T19:47:46;0.80;;;0.80;;
51718;SDS011;37795;53.236;5.704;2023-07-13T19:50:13;0.88;;;0.73;;
51718;SDS011;37795;53.236;5.704;2023-07-13T19:52:41;0.55;;;0.55;;
51718;SDS011;37795;53.236;5.704;2023-07-13T19:55:14;0.47;;;0.47;;
51718;SDS011;37795;53.236;5.704;2023-07-13T19:57:44;0.30;;;0.30;;
51718;SDS011;37795;53.236;5.704;2023-07-13T20:00:15;0.13;;;0.13;;
51718;SDS011;37795;53.236;5.704;2023-07-13T20:02:46;0.20;;;0.20;;
51718;SDS011;37795;53.236;5.704;2023-07-13T20:05:16;0.28;;;0.28;;
51718;SDS011;37795;53.236;5.704;2023-07-13T20:07:44;0.30;;;0.30;;
51718;SDS011;37795;53.236;5.704;2023-07-13T20:10:24;0.25;;;0.25;;
51718;SDS011;37795;53.236;5.704;2023-07-13T20:12:54;0.22;;;0.22;;
51718;SDS011;37795;53.236;5.704;2023-07-13T20:15:22;0.82;;;0.40;;
51718;SDS011;37795;53.236;5.704;2023-07-13T20:17:56;0.20;;;0.20;;
51718;SDS011;37795;53.236;5.704;2023-07-13T20:20:32;0.20;;;0.20;;
51718;SDS011;37795;53.236;5.704;2023-07-13T20:23:36;0.20;;;0.20;;
51718;SDS011;37795;53.236;5.704;2023-07-13T20:25:55;0.45;;;0.45;;
51718;SDS011;37795;53.236;5.704;2023-07-13T20:28:22;0.45;;;0.45;;
51718;SDS011;37795;53.236;5.704;2023-07-13T20:30:49;0.40;;;0.40;;
51718;SDS011;37795;53.236;5.704;2023-07-13T20:33:25;0.35;;;0.35;;
51718;SDS011;37795;53.236;5.704;2023-07-13T20:35:53;0.20;;;0.20;;
51718;SDS011;37795;53.236;5.704;2023-07-13T20:38:21;0.20;;;0.20;;
51718;SDS011;37795;53.236;5.704;2023-07-13T20:40:48;0.60;;;0.60;;
51718;SDS011;37795;53.236;5.704;2023-07-13T20:43:17;0.40;;;0.40;;
51718;SDS011;37795;53.236;5.704;2023-07-13T20:45:44;0.40;;;0.40;;
51718;SDS011;37795;53.236;5.704;2023-07-13T20:51:09;0.25;;;0.25;;
51718;SDS011;37795;53.236;5.704;2023-07-13T20:53:35;0.35;;;0.30;;
51718;SDS011;37795;53.236;5.704;2023-07-13T20:58:34;0.88;;;0.40;;
51718;SDS011;37795;53.236;5.704;2023-07-13T21:01:00;0.27;;;0.27;;
51718;SDS011;37795;53.236;5.704;2023-07-13T21:03:28;0.30;;;0.30;;
51718;SDS011;37795;53.236;5.704;2023-07-13T21:05:54;0.25;;;0.25;;
51718;SDS011;37795;53.236;5.704;2023-07-13T21:08:36;0.28;;;0.28;;
51718;SDS011;37795;53.236;5.704;2023-07-13T21:11:02;0.30;;;0.30;;
51718;SDS011;37795;53.236;5.704;2023-07-13T21:13:28;0.28;;;0.28;;
51718;SDS011;37795;53.236;5.704;2023-07-13T21:15:53;0.30;;;0.30;;
51718;SDS011;37795;53.236;5.704;2023-07-13T21:18:20;0.20;;;0.20;;
51718;SDS011;37795;53.236;5.704;2023-07-13T21:20:49;0.30;;;0.30;;
51718;SDS011;37795;53.236;5.704;2023-07-13T21:23:37;0.20;;;0.20;;
51718;SDS011;37795;53.236;5.704;2023-07-13T21:26:03;0.20;;;0.20;;
51718;SDS011;37795;53.236;5.704;2023-07-13T21:28:35;0.40;;;0.40;;
51718;SDS011;37795;53.236;5.704;2023-07-13T21:31:10;0.20;;;0.20;;
51718;SDS011;37795;53.236;5.704;2023-07-13T21:33:43;0.40;;;0.40;;
51718;SDS011;37795;53.236;5.704;2023-07-13T21:36:08;0.10;;;0.10;;
51718;SDS011;37795;53.236;5.704;2023-07-13T21:38:41;0.45;;;0.45;;
51718;SDS011;37795;53.236;5.704;2023-07-13T21:41:16;0.68;;;0.68;;
51718;SDS011;37795;53.236;5.704;2023-07-13T21:43:56;0.20;;;0.20;;
51718;SDS011;37795;53.236;5.704;2023-07-13T21:46:22;0.10;;;0.10;;
51718;SDS011;37795;53.236;5.704;2023-07-13T21:55:22;0.30;;;0.30;;
51718;SDS011;37795;53.236;5.704;2023-07-13T21:57:50;0.77;;;0.77;;
51718;SDS011;37795;53.236;5.704;2023-07-13T22:00:18;0.30;;;0.30;;
51718;SDS011;37795;53.236;5.704;2023-07-13T22:02:53;0.20;;;0.20;;
51718;SDS011;37795;53.236;5.704;2023-07-13T22:05:23;0.20;;;0.20;;
51718;SDS011;37795;53.236;5.704;2023-07-13T22:07:49;0.28;;;0.28;;
51718;SDS011;37795;53.236;5.704;2023-07-13T22:12:44;0.35;;;0.35;;
51718;SDS011;37795;53.236;5.704;2023-07-13T22:15:10;0.28;;;0.28;;
51718;SDS011;37795;53.236;5.704;2023-07-13T22:20:21;0.20;;;0.20;;
51718;SDS011;37795;53.236;5.704;2023-07-13T22:22:49;0.40;;;0.40;;
51718;SDS011;37795;53.236;5.704;2023-07-13T22:25:16;0.30;;;0.30;;
51718;SDS011;37795;53.236;5.704;2023-07-13T22:27:42;0.20;;;0.20;;
51718;SDS011;37795;53.236;5.704;2023-07-13T22:30:14;0.70;;;0.70;;
51718;SDS011;37795;53.236;5.704;2023-07-13T22:32:42;0.30;;;0.30;;
51718;SDS011;37795;53.236;5.704;2023-07-13T22:35:11;0.50;;;0.50;;
51718;SDS011;37795;53.236;5.704;2023-07-13T22:37:40;0.50;;;0.47;;
51718;SDS011;37795;53.236;5.704;2023-07-13T22:40:11;0.65;;;0.65;;
51718;SDS011;37795;53.236;5.704;2023-07-13T22:42:41;0.50;;;0.50;;
51718;SDS011;37795;53.236;5.704;2023-07-13T22:45:07;0.63;;;0.63;;
51718;SDS011;37795;53.236;5.704;2023-07-13T22:47:35;0.38;;;0.38;;
51718;SDS011;37795;53.236;5.704;2023-07-13T22:50:10;0.30;;;0.30;;
51718;SDS011;37795;53.236;5.704;2023-07-13T22:52:43;0.55;;;0.55;;
51718;SDS011;37795;53.236;5.704;2023-07-13T22:55:12;0.20;;;0.20;;
51718;SDS011;37795;53.236;5.704;2023-07-13T22:57:40;0.20;;;0.20;;
51718;SDS011;37795;53.236;5.704;2023-07-13T23:00:11;0.43;;;0.43;;
51718;SDS011;37795;53.236;5.704;2023-07-13T23:02:41;0.52;;;0.40;;
51718;SDS011;37795;53.236;5.704;2023-07-13T23:05:12;0.30;;;0.30;;
51718;SDS011;37795;53.236;5.704;2023-07-13T23:07:41;0.32;;;0.32;;
51718;SDS011;37795;53.236;5.704;2023-07-13T23:10:17;0.30;;;0.30;;
51718;SDS011;37795;53.236;5.704;2023-07-13T23:12:44;0.20;;;0.20;;
51718;SDS011;37795;53.236;5.704;2023-07-13T23:15:12;0.30;;;0.30;;
51718;SDS011;37795;53.236;5.704;2023-07-13T23:17:49;0.22;;;0.22;;